Terminal Aerodrome Forecast
Issued by NWS

Home | Current Version | Previous Version | Text Only | Print | Product List | Glossary On
Versions: 1 2 3 4 5 6 7 8 9 10 11 12 13 14 15 16 17 18 19 20 21 22 23 24 25 26 27 28
000
FTUS43 KILX 160500
TAFCMI
TAF
KCMI 160520Z 1606/1706 15005KT P6SM SKC
     FM161000 15012KT P6SM SCT250
     FM161400 17023G30KT P6SM SCT150
     FM170100 16013KT P6SM SCT250=

USA.gov is the U.S. government's official web portal to all federal, state and local government web resources and services.